Tuesday, July 26, 2016, 11:57 AM EDT

KPTW, Pottstown Limerick Airport

Location: Royersford, PA, United States Lat: 40.233
Local Time: 11:57 AM EDT (15:57 GMT) Lon: -75.55
Time Zone: US/Eastern Elev: 291 ft

Show me the last for .
Show Decoded

2016-07-26 10:54 METAR KPTW 261454Z AUTO VRB04KT 10SM CLR 29/21 A2997 RMK AO2 SLP144 T02890211
                 50001 =
2016-07-26 09:54 METAR KPTW 261354Z AUTO VRB03KT 9SM CLR 27/22 A2997 RMK AO2 SLP145 T02670222 =
2016-07-26 08:54 METAR KPTW 261254Z AUTO 30005KT 7SM CLR 24/22 A2998 RMK AO2 SLP147 T02440222 =
2016-07-26 07:54 METAR KPTW 261154Z AUTO VRB04KT 5SM BR CLR 22/22 A2997 RMK AO2 SLP143 70045
                 T02220217 10222 20206 53011 =
2016-07-26 06:54 METAR KPTW 261054Z AUTO VRB03KT 4SM BR CLR 22/21 A2996 RMK AO2 SLP140 T02170211
                 =
2016-07-26 05:54 METAR KPTW 260954Z AUTO 31004KT 4SM BR CLR 21/21 A2995 RMK AO2 SLP135 T02060206
                 =
2016-07-26 03:54 METAR KPTW 260754Z AUTO 00000KT 6SM BR CLR 21/21 A2994 RMK AO2 SLP134 T02060206
                 =
2016-07-26 02:54 METAR KPTW 260654Z AUTO 00000KT 8SM CLR 21/21 A2993 RMK AO2 SLP130 T02060206 =
2016-07-26 01:54 METAR KPTW 260554Z AUTO 24003KT 9SM CLR 21/21 A2993 RMK AO2 SLP129 60010
                 T02110206 10217 20211 58003 =
2016-07-26 00:54 METAR KPTW 260454Z AUTO 00000KT 10SM CLR 21/21 A2993 RMK AO2 SLP130 T02110211
                 403440211 =
2016-07-25 23:54 METAR KPTW 260354Z AUTO 31003KT 10SM CLR 21/21 A2994 RMK AO2 SLP134 T02110211 =
2016-07-25 22:54 METAR KPTW 260254Z AUTO 00000KT 10SM CLR 22/21 A2994 RMK AO2 SLP134 60010
                 T02170211 58002 =
2016-07-25 21:54 METAR KPTW 260154Z AUTO 21003KT 10SM SCT110 22/22 A2996 RMK AO2 RAB08E23 SLP139
                 P0000 T02170217 =
2016-07-25 20:54 METAR KPTW 260054Z AUTO 22003KT 10SM FEW080 SCT095 SCT110 22/22 A2994 RMK AO2
                 LTG DSNT S AND SW RAE46 TSB08E23 SLP133 P0010 T02170217 =
2016-07-25 20:32 METAR KPTW 260032Z AUTO VRB03KT 5SM -RA BR FEW045 BKN100 22/22 A2991 RMK AO2 LTG
                 DSNT S-W TSB08E23 PRESFR P0009 T02170217 =
2016-07-25 20:24 METAR KPTW 260024Z AUTO 20003KT 2SM -RA BR FEW045 SCT070 BKN110 22/22 A2993 RMK
                 AO2 LTG DSNT S AND W TSB08E23 P0009 T02170217 =
2016-07-25 20:21 METAR KPTW 260021Z AUTO 18003KT 1 1/2SM TSRA BR FEW016 SCT045 BKN075 22/22 A2993
                 RMK AO2 LTG DSNT S AND W TSB08 P0009 T02170217 =
2016-07-25 20:14 METAR KPTW 260014Z AUTO 00000KT 2SM -TSRA BR FEW046 BKN085 OVC100 22/21 A2993
                 RMK AO2 LTG DSNT S TSB08 P0006 T02170211 =
2016-07-25 20:07 METAR KPTW 260007Z AUTO 20003KT 2 1/2SM VCTS RA BR FEW055 BKN095 OVC120 22/21
                 A2995 RMK AO2 LTG DSNT ALQDS P0002 T02170211 =
2016-07-25 19:54 METAR KPTW 252354Z AUTO 00000KT 8SM -RA FEW055 BKN085 OVC100 22/21 A2995 RMK AO2
                 LTG DSNT ALQDS TSE21B24E39 SLP136 P0019 60035 T02170211 10344 20217 53030 =
2016-07-25 19:45 METAR KPTW 252345Z AUTO 00000KT 5SM -RA BR FEW055 BKN090 OVC110 22/21 A2995 RMK
                 AO2 LTG DSNT ALQDS TSE21B24E39 P0019 T02170211 =
2016-07-25 19:39 METAR KPTW 252339Z AUTO 09003KT 2 1/2SM VCTS RA BR FEW050 BKN090 OVC110 22/21
                 A2995 RMK AO2 LTG DSNT ALQDS TSE21B24E39 P0018 T02170211 =
2016-07-25 19:30 METAR KPTW 252330Z AUTO 20005KT 1 1/2SM TSRA BR SCT048 BKN070 OVC090 22/21 A2996
                 RMK AO2 LTG DSNT ALQDS TSE21B24 PRESRR P0016 T02170206 =
2016-07-25 19:22 METAR KPTW 252322Z AUTO VRB03KT 1 3/4SM VCTS +RA BR SCT044 BKN060 OVC100 22/21
                 A2994 RMK AO2 LTG DSNT ALQDS TSE21 P0013 T02170206 =
2016-07-25 19:13 METAR KPTW 252313Z AUTO 01011KT 2SM -TSRA BR FEW021 BKN055 OVC070 22/21 A2993
                 RMK AO2 LTG DSNT ALQDS P0007 T02220206 =
2016-07-25 19:03 METAR KPTW 252303Z AUTO 35009KT 3SM -TSRA BR FEW021 SCT034 OVC060 22/21 A2994
                 RMK AO2 LTG DSNT ALQDS P0002 T02220211 =
2016-07-25 18:54 METAR KPTW 252254Z AUTO 03012KT 1 3/4SM +TSRA BR FEW018 SCT028 OVC050 23/21
                 A2993 RMK AO2 PK WND 01032/2222 VIS 3/4V5 LTG DSNT ALQDS RAB37 TSE15B18 SLP131
                 P0016 T02280211 =
2016-07-25 17:54 METAR KPTW 252154Z AUTO 04008KT 7SM TS SCT031 SCT046 BKN055 27/24 A2986 RMK AO2
                 LTG DSNT N-E TSE2057B44 SLP106 T02720239 =
2016-07-25 17:44 METAR KPTW 252144Z AUTO 01007KT 7SM TS SCT029 BKN034 OVC041 27/24 A2986 RMK AO2
                 LTG DSNT NW-E TSE2057B44 T02720239 =
2016-07-25 17:37 METAR KPTW 252137Z AUTO 36009G17KT 310V040 7SM BKN031 BKN042 28/24 A2986 RMK AO2
                 LTG DSNT NE AND E TSE2057 T02780239 =
2016-07-25 17:03 METAR KPTW 252103Z AUTO VRB04KT 6SM VCTS HZ FEW033 FEW044 SCT060 32/26 A2985 RMK
                 AO2 LTG DSNT N-E TSE2057 T03220256 =
2016-07-25 16:54 METAR KPTW 252054Z AUTO 22003KT 6SM TS HZ FEW039 SCT050 BKN060 31/25 A2986 RMK
                 AO2 LTG DSNT N-E RAB14E49 TSB38 SLP106 P0000 60000 T03110250 55016 =
2016-07-25 16:38 METAR KPTW 252038Z AUTO 20004KT 6SM -TSRA SCT049 SCT065 BKN080 31/24 A2984 RMK
                 AO2 LTG DSNT ALQDS RAB14 TSB38 P0000 T03110244 =
2016-07-25 15:54 METAR KPTW 251954Z AUTO 21004KT 7SM FEW045 33/23 A2985 RMK AO2 LTG DSNT N AND NW
                 SLP102 T03280233 =
2016-07-25 14:54 METAR KPTW 251854Z AUTO VRB05KT 8SM SCT047 SCT060 34/23 A2987 RMK AO2 SLP110
                 T03440233 =
2016-07-25 13:54 METAR KPTW 251754Z AUTO VRB05KT 8SM FEW045 34/23 A2990 RMK AO2 SLP121 T03390233
                 10339 20233 58020 =
2016-07-25 12:54 METAR KPTW 251654Z AUTO 25006KT 9SM CLR 33/22 A2993 RMK AO2 SLP128 T03280217 =

Support USWX by starting your Amazon purchase here.